首页
METAR-TAF:

METAR-TAF

机场 :

Northway, 阿拉斯加州, 美国

纬度: 62-57-40N, 经度: 141-55-44W, 海拔: 523米

当前天气观测

该预报发布于53分钟前的15:53 UTC
静风
温度 13°C
湿度 72%
气压 1008 hPa
能見度: 16.1公里
少量云层高于6000英尺

METAR: PAOR 041553Z 00000KT 10SM FEW060 13/08 A2978 RMK AO2 SLP080 T01330078

时间: 08:46 (16:46 UTC)

预报

该预报发布于5小时和21分钟前的11:25 UTC
预报有效从04日的 12点(UTC)到 05日的 12点(UTC)
风速3节,风向多变
能見度: 10公里
散云层高于7000英尺
多云层高于9000英尺
从 04日的 2100点(UTC)
风速5节,风向北转西北
能見度: 10公里
多云层高于5000英尺, 积雨云.
阴天层高于10000英尺
附近有雷暴
从 05日的 0300点(UTC)
风速3节,风向多变
能見度: 10公里
散云层高于2500英尺
多云层高于5000英尺
阴天层高于10000英尺
小阵雨

TAF: PAOR 041125Z 0412/0512 VRB03KT P6SM SCT070 BKN090 FM042100 33005KT P6SM VCTS BKN050CB OVC100 FM050300 VRB03KT P6SM -SHRA SCT025 BKN050 OVC100

超过4000个机场的气象观测和天气预报(METAR&TAF报告)。

可查询的气象台以黄色和红色小点在地图上表示。

将鼠标移到小点上方,可查看气象台名称。

然后点击查看天气观测和预报。

如需切换地图:点击带黑十字的绿色按钮放大地图;点击带横线的绿色按钮缩小地图;或者点击绿色箭头查看邻近地区的地图。


METAR-TAF: